Terminal Aerodrome Forecast
Issued by NWS

Home | Current Version | Previous Version | Text Only | Print | Product List | Glossary On
Versions: 1 2 3 4 5 6 7 8 9 10 11 12 13 14
000
FTUS42 KGSP 310531
TAFAND
TAF
KAND 310531Z 3106/0106 04003KT P6SM FEW070 BKN100
     FM311100 04003KT 4SM BR FEW070
     FM311200 04003KT P6SM FEW070 PROB30 3122/0102 4SM -TSRA
      BKN050CB
     FM010200 06003KT P6SM BKN050
     FM010500 04003KT P6SM SCT060=

USA.gov is the U.S. government's official web portal to all federal, state and local government web resources and services.